sensor_id;sensor_type;location;lat;lon;timestamp;temperature;humidity
18876;DHT22;9570;50.854;13.778;2022-08-24T00:01:45;18.00;99.90
18876;DHT22;9570;50.854;13.778;2022-08-24T00:04:10;18.00;99.90
18876;DHT22;9570;50.854;13.778;2022-08-24T00:06:36;18.00;99.90
18876;DHT22;9570;50.854;13.778;2022-08-24T00:09:01;18.00;99.90
18876;DHT22;9570;50.854;13.778;2022-08-24T00:11:27;18.00;99.90
18876;DHT22;9570;50.854;13.778;2022-08-24T00:13:52;18.00;99.90
18876;DHT22;9570;50.854;13.778;2022-08-24T00:16:18;18.00;99.90
18876;DHT22;9570;50.854;13.778;2022-08-24T00:18:44;18.00;99.90
18876;DHT22;9570;50.854;13.778;2022-08-24T00:21:11;18.00;99.90
18876;DHT22;9570;50.854;13.778;2022-08-24T00:23:37;18.00;99.90
18876;DHT22;9570;50.854;13.778;2022-08-24T00:26:04;18.00;99.90
18876;DHT22;9570;50.854;13.778;2022-08-24T00:28:29;18.00;99.90
18876;DHT22;9570;50.854;13.778;2022-08-24T00:30:55;18.00;99.90
18876;DHT22;9570;50.854;13.778;2022-08-24T00:33:21;18.00;99.90
18876;DHT22;9570;50.854;13.778;2022-08-24T00:35:46;18.00;99.90
18876;DHT22;9570;50.854;13.778;2022-08-24T00:38:12;18.00;99.90
18876;DHT22;9570;50.854;13.778;2022-08-24T00:40:40;18.10;99.90
18876;DHT22;9570;50.854;13.778;2022-08-24T00:43:07;18.10;99.90
18876;DHT22;9570;50.854;13.778;2022-08-24T00:45:39;18.10;99.90
18876;DHT22;9570;50.854;13.778;2022-08-24T00:48:12;18.10;99.90
18876;DHT22;9570;50.854;13.778;2022-08-24T00:50:46;18.10;99.90
18876;DHT22;9570;50.854;13.778;2022-08-24T00:53:23;18.10;99.90
18876;DHT22;9570;50.854;13.778;2022-08-24T00:55:53;18.10;99.90
18876;DHT22;9570;50.854;13.778;2022-08-24T00:58:31;18.00;99.90
18876;DHT22;9570;50.854;13.778;2022-08-24T01:01:03;18.00;99.90
18876;DHT22;9570;50.854;13.778;2022-08-24T01:03:31;18.10;99.90
18876;DHT22;9570;50.854;13.778;2022-08-24T01:05:57;18.10;99.90
18876;DHT22;9570;50.854;13.778;2022-08-24T01:08:23;18.10;99.90
18876;DHT22;9570;50.854;13.778;2022-08-24T01:10:57;18.10;99.90
18876;DHT22;9570;50.854;13.778;2022-08-24T01:13:24;18.10;99.90
18876;DHT22;9570;50.854;13.778;2022-08-24T01:15:52;18.10;99.90
18876;DHT22;9570;50.854;13.778;2022-08-24T01:18:21;18.10;99.90
18876;DHT22;9570;50.854;13.778;2022-08-24T01:21:23;18.10;99.90
18876;DHT22;9570;50.854;13.778;2022-08-24T01:23:55;18.10;99.90
18876;DHT22;9570;50.854;13.778;2022-08-24T01:26:32;18.10;99.90
18876;DHT22;9570;50.854;13.778;2022-08-24T01:29:03;18.10;99.90
18876;DHT22;9570;50.854;13.778;2022-08-24T01:31:30;18.10;99.90
18876;DHT22;9570;50.854;13.778;2022-08-24T01:33:56;18.10;99.90
18876;DHT22;9570;50.854;13.778;2022-08-24T01:36:31;18.10;99.90
18876;DHT22;9570;50.854;13.778;2022-08-24T01:39:03;18.10;99.90
18876;DHT22;9570;50.854;13.778;2022-08-24T01:41:30;18.10;99.90
18876;DHT22;9570;50.854;13.778;2022-08-24T01:43:56;18.20;99.90
18876;DHT22;9570;50.854;13.778;2022-08-24T01:46:22;18.10;99.90
18876;DHT22;9570;50.854;13.778;2022-08-24T01:48:47;18.20;99.90
18876;DHT22;9570;50.854;13.778;2022-08-24T01:51:13;18.20;99.90
18876;DHT22;9570;50.854;13.778;2022-08-24T01:53:38;18.20;99.90
18876;DHT22;9570;50.854;13.778;2022-08-24T01:56:04;18.10;99.90
18876;DHT22;9570;50.854;13.778;2022-08-24T01:58:30;18.10;99.90
18876;DHT22;9570;50.854;13.778;2022-08-24T02:00:55;18.00;99.90
18876;DHT22;9570;50.854;13.778;2022-08-24T02:03:21;18.00;99.90
18876;DHT22;9570;50.854;13.778;2022-08-24T02:05:47;18.00;99.90
18876;DHT22;9570;50.854;13.778;2022-08-24T02:08:12;18.00;99.90
18876;DHT22;9570;50.854;13.778;2022-08-24T02:10:38;18.10;99.90
18876;DHT22;9570;50.854;13.778;2022-08-24T02:13:04;18.10;99.90
18876;DHT22;9570;50.854;13.778;2022-08-24T02:15:35;18.10;99.90
18876;DHT22;9570;50.854;13.778;2022-08-24T02:18:06;18.10;99.90
18876;DHT22;9570;50.854;13.778;2022-08-24T02:20:32;18.10;99.90
18876;DHT22;9570;50.854;13.778;2022-08-24T02:22:58;18.10;99.90
18876;DHT22;9570;50.854;13.778;2022-08-24T02:25:25;18.10;99.90
18876;DHT22;9570;50.854;13.778;2022-08-24T02:27:54;18.10;99.90
18876;DHT22;9570;50.854;13.778;2022-08-24T02:30:20;18.10;99.90
18876;DHT22;9570;50.854;13.778;2022-08-24T02:32:45;18.10;99.90
18876;DHT22;9570;50.854;13.778;2022-08-24T02:35:11;18.10;99.90
18876;DHT22;9570;50.854;13.778;2022-08-24T02:37:37;18.10;99.90
18876;DHT22;9570;50.854;13.778;2022-08-24T02:40:04;18.10;99.90
18876;DHT22;9570;50.854;13.778;2022-08-24T02:42:30;18.10;99.90
18876;DHT22;9570;50.854;13.778;2022-08-24T02:44:55;18.20;99.90
18876;DHT22;9570;50.854;13.778;2022-08-24T02:47:21;18.20;99.90
18876;DHT22;9570;50.854;13.778;2022-08-24T02:49:46;18.10;99.90
18876;DHT22;9570;50.854;13.778;2022-08-24T02:52:13;18.10;99.90
18876;DHT22;9570;50.854;13.778;2022-08-24T02:54:38;18.10;99.90
18876;DHT22;9570;50.854;13.778;2022-08-24T02:57:04;18.10;99.90
18876;DHT22;9570;50.854;13.778;2022-08-24T02:59:30;18.10;99.90
18876;DHT22;9570;50.854;13.778;2022-08-24T03:01:55;18.10;99.90
18876;DHT22;9570;50.854;13.778;2022-08-24T03:04:21;18.10;99.90
18876;DHT22;9570;50.854;13.778;2022-08-24T03:06:46;18.10;99.90
18876;DHT22;9570;50.854;13.778;2022-08-24T03:09:12;18.00;99.90
18876;DHT22;9570;50.854;13.778;2022-08-24T03:11:39;18.10;99.90
18876;DHT22;9570;50.854;13.778;2022-08-24T03:14:04;18.10;99.90
18876;DHT22;9570;50.854;13.778;2022-08-24T03:16:30;18.00;99.90
18876;DHT22;9570;50.854;13.778;2022-08-24T03:18:56;18.10;99.90
18876;DHT22;9570;50.854;13.778;2022-08-24T03:21:22;18.10;99.90
18876;DHT22;9570;50.854;13.778;2022-08-24T03:23:47;18.10;99.90
18876;DHT22;9570;50.854;13.778;2022-08-24T03:26:13;18.10;99.90
18876;DHT22;9570;50.854;13.778;2022-08-24T03:28:39;18.10;99.90
18876;DHT22;9570;50.854;13.778;2022-08-24T03:31:05;18.10;99.90
18876;DHT22;9570;50.854;13.778;2022-08-24T03:33:31;18.10;99.90
18876;DHT22;9570;50.854;13.778;2022-08-24T03:35:56;18.10;99.90
18876;DHT22;9570;50.854;13.778;2022-08-24T03:38:22;18.10;99.90
18876;DHT22;9570;50.854;13.778;2022-08-24T03:40:47;18.10;99.90
18876;DHT22;9570;50.854;13.778;2022-08-24T03:43:13;18.10;99.90
18876;DHT22;9570;50.854;13.778;2022-08-24T03:45:59;18.10;99.90
18876;DHT22;9570;50.854;13.778;2022-08-24T03:48:27;18.10;99.90
18876;DHT22;9570;50.854;13.778;2022-08-24T03:50:53;18.10;99.90
18876;DHT22;9570;50.854;13.778;2022-08-24T03:53:18;18.10;99.90
18876;DHT22;9570;50.854;13.778;2022-08-24T03:55:44;18.10;99.90
18876;DHT22;9570;50.854;13.778;2022-08-24T03:58:10;18.10;99.90
18876;DHT22;9570;50.854;13.778;2022-08-24T04:00:35;18.10;99.90
18876;DHT22;9570;50.854;13.778;2022-08-24T04:03:02;18.20;99.90
18876;DHT22;9570;50.854;13.778;2022-08-24T04:05:27;18.10;99.90
18876;DHT22;9570;50.854;13.778;2022-08-24T04:07:52;18.20;99.90
18876;DHT22;9570;50.854;13.778;2022-08-24T04:10:18;18.20;99.90
18876;DHT22;9570;50.854;13.778;2022-08-24T04:12:44;18.20;99.90
18876;DHT22;9570;50.854;13.778;2022-08-24T04:15:10;18.20;99.90
18876;DHT22;9570;50.854;13.778;2022-08-24T04:17:36;18.20;99.90
18876;DHT22;9570;50.854;13.778;2022-08-24T04:20:02;18.20;99.90
18876;DHT22;9570;50.854;13.778;2022-08-24T04:22:30;18.10;99.90
18876;DHT22;9570;50.854;13.778;2022-08-24T04:24:58;18.20;99.90
18876;DHT22;9570;50.854;13.778;2022-08-24T04:27:23;18.20;99.90
18876;DHT22;9570;50.854;13.778;2022-08-24T04:29:49;18.20;99.90
18876;DHT22;9570;50.854;13.778;2022-08-24T04:32:15;18.20;99.90
18876;DHT22;9570;50.854;13.778;2022-08-24T04:34:42;18.30;99.90
18876;DHT22;9570;50.854;13.778;2022-08-24T04:37:08;18.20;99.90
18876;DHT22;9570;50.854;13.778;2022-08-24T04:39:33;18.30;99.90
18876;DHT22;9570;50.854;13.778;2022-08-24T04:41:59;18.30;99.90
18876;DHT22;9570;50.854;13.778;2022-08-24T04:44:24;18.30;99.90
18876;DHT22;9570;50.854;13.778;2022-08-24T04:46:50;18.30;99.90
18876;DHT22;9570;50.854;13.778;2022-08-24T04:49:15;18.30;99.90
18876;DHT22;9570;50.854;13.778;2022-08-24T04:51:41;18.30;99.90
18876;DHT22;9570;50.854;13.778;2022-08-24T04:54:06;18.30;99.90
18876;DHT22;9570;50.854;13.778;2022-08-24T04:56:33;18.30;99.90
18876;DHT22;9570;50.854;13.778;2022-08-24T04:58:59;18.30;99.90
18876;DHT22;9570;50.854;13.778;2022-08-24T05:01:27;18.40;99.90
18876;DHT22;9570;50.854;13.778;2022-08-24T05:03:53;18.40;99.90
18876;DHT22;9570;50.854;13.778;2022-08-24T05:06:24;18.40;99.90
18876;DHT22;9570;50.854;13.778;2022-08-24T05:08:50;18.40;99.90
18876;DHT22;9570;50.854;13.778;2022-08-24T05:11:18;18.40;99.90
18876;DHT22;9570;50.854;13.778;2022-08-24T05:13:44;18.40;99.90
18876;DHT22;9570;50.854;13.778;2022-08-24T05:16:12;18.50;99.90
18876;DHT22;9570;50.854;13.778;2022-08-24T05:18:38;18.50;99.90
18876;DHT22;9570;50.854;13.778;2022-08-24T05:21:11;18.50;99.90
18876;DHT22;9570;50.854;13.778;2022-08-24T05:23:38;18.50;99.90
18876;DHT22;9570;50.854;13.778;2022-08-24T05:26:12;18.50;99.90
18876;DHT22;9570;50.854;13.778;2022-08-24T05:28:39;18.50;99.90
18876;DHT22;9570;50.854;13.778;2022-08-24T05:31:09;18.50;99.90
18876;DHT22;9570;50.854;13.778;2022-08-24T05:33:35;18.50;99.90
18876;DHT22;9570;50.854;13.778;2022-08-24T05:36:02;18.50;99.90
18876;DHT22;9570;50.854;13.778;2022-08-24T05:38:27;18.60;99.90
18876;DHT22;9570;50.854;13.778;2022-08-24T05:40:53;18.70;99.90
18876;DHT22;9570;50.854;13.778;2022-08-24T05:43:18;18.80;99.90
18876;DHT22;9570;50.854;13.778;2022-08-24T05:45:43;18.80;99.90
18876;DHT22;9570;50.854;13.778;2022-08-24T05:48:09;18.90;99.90
18876;DHT22;9570;50.854;13.778;2022-08-24T05:50:34;19.00;99.90
18876;DHT22;9570;50.854;13.778;2022-08-24T05:53:00;19.00;99.90
18876;DHT22;9570;50.854;13.778;2022-08-24T05:55:25;19.10;99.90
18876;DHT22;9570;50.854;13.778;2022-08-24T05:57:51;19.20;99.90
18876;DHT22;9570;50.854;13.778;2022-08-24T06:00:17;19.30;99.90
18876;DHT22;9570;50.854;13.778;2022-08-24T06:02:42;19.30;99.90
18876;DHT22;9570;50.854;13.778;2022-08-24T06:05:08;19.40;99.90
18876;DHT22;9570;50.854;13.778;2022-08-24T06:07:34;19.40;99.90
18876;DHT22;9570;50.854;13.778;2022-08-24T06:10:00;19.40;99.90
18876;DHT22;9570;50.854;13.778;2022-08-24T06:12:25;19.40;99.90
18876;DHT22;9570;50.854;13.778;2022-08-24T06:14:51;19.40;99.90
18876;DHT22;9570;50.854;13.778;2022-08-24T06:17:17;19.40;99.90
18876;DHT22;9570;50.854;13.778;2022-08-24T06:19:42;19.40;99.90
18876;DHT22;9570;50.854;13.778;2022-08-24T06:22:08;19.40;99.90
18876;DHT22;9570;50.854;13.778;2022-08-24T06:24:35;19.30;99.90
18876;DHT22;9570;50.854;13.778;2022-08-24T06:27:20;19.40;99.90
18876;DHT22;9570;50.854;13.778;2022-08-24T06:29:53;19.40;99.90
18876;DHT22;9570;50.854;13.778;2022-08-24T06:32:20;19.40;99.90
18876;DHT22;9570;50.854;13.778;2022-08-24T06:34:45;19.40;99.90
18876;DHT22;9570;50.854;13.778;2022-08-24T06:37:11;19.40;99.90
18876;DHT22;9570;50.854;13.778;2022-08-24T06:39:36;19.40;99.90
18876;DHT22;9570;50.854;13.778;2022-08-24T06:42:02;19.50;99.90
18876;DHT22;9570;50.854;13.778;2022-08-24T06:44:27;19.50;99.90
18876;DHT22;9570;50.854;13.778;2022-08-24T06:46:53;19.50;99.90
18876;DHT22;9570;50.854;13.778;2022-08-24T06:49:18;19.50;99.90
18876;DHT22;9570;50.854;13.778;2022-08-24T06:51:44;19.60;99.90
18876;DHT22;9570;50.854;13.778;2022-08-24T06:54:10;19.60;99.90
18876;DHT22;9570;50.854;13.778;2022-08-24T06:56:36;19.70;99.90
18876;DHT22;9570;50.854;13.778;2022-08-24T06:59:03;19.60;99.90
18876;DHT22;9570;50.854;13.778;2022-08-24T07:01:29;19.60;99.90
18876;DHT22;9570;50.854;13.778;2022-08-24T07:03:55;19.60;99.90
18876;DHT22;9570;50.854;13.778;2022-08-24T07:06:21;19.60;99.90
18876;DHT22;9570;50.854;13.778;2022-08-24T07:08:47;19.70;99.90
18876;DHT22;9570;50.854;13.778;2022-08-24T07:11:15;19.70;99.90
18876;DHT22;9570;50.854;13.778;2022-08-24T07:13:43;19.70;99.90
18876;DHT22;9570;50.854;13.778;2022-08-24T07:16:09;19.80;99.90
18876;DHT22;9570;50.854;13.778;2022-08-24T07:18:35;19.90;99.90
18876;DHT22;9570;50.854;13.778;2022-08-24T07:21:02;19.70;99.90
18876;DHT22;9570;50.854;13.778;2022-08-24T07:23:28;19.60;99.90
18876;DHT22;9570;50.854;13.778;2022-08-24T07:25:54;19.70;99.90
18876;DHT22;9570;50.854;13.778;2022-08-24T07:28:20;19.80;99.90
18876;DHT22;9570;50.854;13.778;2022-08-24T07:30:45;19.90;99.90
18876;DHT22;9570;50.854;13.778;2022-08-24T07:33:11;19.90;99.90
18876;DHT22;9570;50.854;13.778;2022-08-24T07:35:37;20.00;99.90
18876;DHT22;9570;50.854;13.778;2022-08-24T07:38:05;20.00;99.90
18876;DHT22;9570;50.854;13.778;2022-08-24T07:40:32;20.00;99.90
18876;DHT22;9570;50.854;13.778;2022-08-24T07:42:58;20.00;99.90
18876;DHT22;9570;50.854;13.778;2022-08-24T07:45:25;20.00;99.90
18876;DHT22;9570;50.854;13.778;2022-08-24T07:47:51;19.90;99.90
18876;DHT22;9570;50.854;13.778;2022-08-24T07:50:17;19.80;99.90
18876;DHT22;9570;50.854;13.778;2022-08-24T07:52:43;19.80;99.90
18876;DHT22;9570;50.854;13.778;2022-08-24T07:55:09;19.80;99.90
18876;DHT22;9570;50.854;13.778;2022-08-24T07:57:37;19.80;99.90
18876;DHT22;9570;50.854;13.778;2022-08-24T08:00:04;19.80;99.90
18876;DHT22;9570;50.854;13.778;2022-08-24T08:02:31;19.80;99.90
18876;DHT22;9570;50.854;13.778;2022-08-24T08:04:58;19.80;99.90
18876;DHT22;9570;50.854;13.778;2022-08-24T08:07:24;19.80;99.90
18876;DHT22;9570;50.854;13.778;2022-08-24T08:09:50;19.80;99.90
18876;DHT22;9570;50.854;13.778;2022-08-24T08:12:16;19.90;99.90
18876;DHT22;9570;50.854;13.778;2022-08-24T08:14:41;20.00;99.90
18876;DHT22;9570;50.854;13.778;2022-08-24T08:17:06;19.90;99.90
18876;DHT22;9570;50.854;13.778;2022-08-24T08:19:33;19.90;99.90
18876;DHT22;9570;50.854;13.778;2022-08-24T08:21:58;19.90;99.90
18876;DHT22;9570;50.854;13.778;2022-08-24T08:24:43;19.80;99.90
18876;DHT22;9570;50.854;13.778;2022-08-24T08:27:10;19.90;99.90
18876;DHT22;9570;50.854;13.778;2022-08-24T08:29:38;19.90;99.90
18876;DHT22;9570;50.854;13.778;2022-08-24T08:32:05;19.80;99.90
18876;DHT22;9570;50.854;13.778;2022-08-24T08:34:30;19.80;99.90
18876;DHT22;9570;50.854;13.778;2022-08-24T08:36:56;19.80;99.90
18876;DHT22;9570;50.854;13.778;2022-08-24T08:39:22;19.90;99.90
18876;DHT22;9570;50.854;13.778;2022-08-24T08:42:02;20.00;99.90
18876;DHT22;9570;50.854;13.778;2022-08-24T08:44:52;20.00;99.90
18876;DHT22;9570;50.854;13.778;2022-08-24T08:50:32;19.90;99.90
18876;DHT22;9570;50.854;13.778;2022-08-24T08:53:36;19.90;99.90
18876;DHT22;9570;50.854;13.778;2022-08-24T08:56:39;19.90;99.90
18876;DHT22;9570;50.854;13.778;2022-08-24T08:59:29;20.00;99.90
18876;DHT22;9570;50.854;13.778;2022-08-24T09:13:34;20.40;99.90
18876;DHT22;9570;50.854;13.778;2022-08-24T09:16:20;20.40;99.90
18876;DHT22;9570;50.854;13.778;2022-08-24T09:21:57;20.40;99.90
18876;DHT22;9570;50.854;13.778;2022-08-24T09:30:14;20.40;99.90
18876;DHT22;9570;50.854;13.778;2022-08-24T09:36:05;20.20;99.90
18876;DHT22;9570;50.854;13.778;2022-08-24T09:38:56;20.30;99.90
18876;DHT22;9570;50.854;13.778;2022-08-24T09:41:51;20.30;99.90
18876;DHT22;9570;50.854;13.778;2022-08-24T09:47:50;20.30;99.90
18876;DHT22;9570;50.854;13.778;2022-08-24T09:50:45;20.30;99.90
18876;DHT22;9570;50.854;13.778;2022-08-24T09:56:40;20.50;99.90
18876;DHT22;9570;50.854;13.778;2022-08-24T10:02:16;20.60;99.90
18876;DHT22;9570;50.854;13.778;2022-08-24T10:07:48;20.60;99.90
18876;DHT22;9570;50.854;13.778;2022-08-24T10:13:15;20.70;99.90
18876;DHT22;9570;50.854;13.778;2022-08-24T10:21:52;20.80;99.90
18876;DHT22;9570;50.854;13.778;2022-08-24T10:24:34;20.80;99.90
18876;DHT22;9570;50.854;13.778;2022-08-24T10:27:03;20.90;99.90
18876;DHT22;9570;50.854;13.778;2022-08-24T10:35:13;21.00;99.90
18876;DHT22;9570;50.854;13.778;2022-08-24T10:37:56;20.80;99.90
18876;DHT22;9570;50.854;13.778;2022-08-24T10:43:57;20.70;99.90
18876;DHT22;9570;50.854;13.778;2022-08-24T10:46:59;20.80;99.90
18876;DHT22;9570;50.854;13.778;2022-08-24T10:52:50;20.80;99.90
18876;DHT22;9570;50.854;13.778;2022-08-24T10:55:30;20.80;99.90
18876;DHT22;9570;50.854;13.778;2022-08-24T10:58:18;20.90;99.90
18876;DHT22;9570;50.854;13.778;2022-08-24T11:00:50;21.00;99.90
18876;DHT22;9570;50.854;13.778;2022-08-24T11:03:18;21.10;99.90
18876;DHT22;9570;50.854;13.778;2022-08-24T11:05:50;21.20;99.90
18876;DHT22;9570;50.854;13.778;2022-08-24T11:08:27;21.50;99.90
18876;DHT22;9570;50.854;13.778;2022-08-24T11:11:08;21.60;99.90
18876;DHT22;9570;50.854;13.778;2022-08-24T11:13:35;21.80;99.90
18876;DHT22;9570;50.854;13.778;2022-08-24T11:16:03;21.90;99.90
18876;DHT22;9570;50.854;13.778;2022-08-24T11:18:50;21.90;99.90
18876;DHT22;9570;50.854;13.778;2022-08-24T11:24:44;22.10;99.90
18876;DHT22;9570;50.854;13.778;2022-08-24T11:35:08;22.00;99.90
18876;DHT22;9570;50.854;13.778;2022-08-24T11:37:38;22.10;99.90
18876;DHT22;9570;50.854;13.778;2022-08-24T11:40:06;22.10;99.90
18876;DHT22;9570;50.854;13.778;2022-08-24T11:42:50;22.20;99.90
18876;DHT22;9570;50.854;13.778;2022-08-24T11:45:29;22.30;99.90
18876;DHT22;9570;50.854;13.778;2022-08-24T11:48:28;22.30;99.90
18876;DHT22;9570;50.854;13.778;2022-08-24T11:56:34;22.30;99.90
18876;DHT22;9570;50.854;13.778;2022-08-24T12:01:56;22.40;99.90
18876;DHT22;9570;50.854;13.778;2022-08-24T12:04:43;22.40;99.90
18876;DHT22;9570;50.854;13.778;2022-08-24T12:10:15;22.40;99.90
18876;DHT22;9570;50.854;13.778;2022-08-24T12:18:10;22.40;99.90
18876;DHT22;9570;50.854;13.778;2022-08-24T12:20:45;22.60;99.90
18876;DHT22;9570;50.854;13.778;2022-08-24T12:23:25;22.80;99.90
18876;DHT22;9570;50.854;13.778;2022-08-24T12:25:58;22.90;99.90
18876;DHT22;9570;50.854;13.778;2022-08-24T12:28:39;23.00;99.90
18876;DHT22;9570;50.854;13.778;2022-08-24T12:31:19;23.10;99.90
18876;DHT22;9570;50.854;13.778;2022-08-24T12:33:50;23.10;99.90
18876;DHT22;9570;50.854;13.778;2022-08-24T12:36:41;23.10;99.90
18876;DHT22;9570;50.854;13.778;2022-08-24T12:39:27;23.30;99.90
18876;DHT22;9570;50.854;13.778;2022-08-24T12:42:08;23.40;99.90
18876;DHT22;9570;50.854;13.778;2022-08-24T12:44:52;23.40;99.90
18876;DHT22;9570;50.854;13.778;2022-08-24T12:50:13;23.30;99.90
18876;DHT22;9570;50.854;13.778;2022-08-24T12:59:00;23.30;99.90
18876;DHT22;9570;50.854;13.778;2022-08-24T13:01:30;23.30;99.90
18876;DHT22;9570;50.854;13.778;2022-08-24T13:04:14;23.40;99.90
18876;DHT22;9570;50.854;13.778;2022-08-24T13:06:51;23.50;99.90
18876;DHT22;9570;50.854;13.778;2022-08-24T13:09:35;23.40;99.90
18876;DHT22;9570;50.854;13.778;2022-08-24T13:30:57;23.80;99.90
18876;DHT22;9570;50.854;13.778;2022-08-24T13:33:30;23.90;99.90
18876;DHT22;9570;50.854;13.778;2022-08-24T13:47:03;23.60;99.90
18876;DHT22;9570;50.854;13.778;2022-08-24T13:52:25;23.50;99.90
18876;DHT22;9570;50.854;13.778;2022-08-24T13:57:38;23.60;99.90
18876;DHT22;9570;50.854;13.778;2022-08-24T14:03:07;23.60;99.90
18876;DHT22;9570;50.854;13.778;2022-08-24T14:05:47;23.50;99.90
18876;DHT22;9570;50.854;13.778;2022-08-24T14:08:33;23.40;99.90
18876;DHT22;9570;50.854;13.778;2022-08-24T14:11:19;23.30;99.90
18876;DHT22;9570;50.854;13.778;2022-08-24T14:14:07;23.30;99.90
18876;DHT22;9570;50.854;13.778;2022-08-24T14:16:44;23.20;99.90
18876;DHT22;9570;50.854;13.778;2022-08-24T14:19:42;23.20;99.90
18876;DHT22;9570;50.854;13.778;2022-08-24T14:22:27;23.30;99.90
18876;DHT22;9570;50.854;13.778;2022-08-24T14:25:20;23.40;99.90
18876;DHT22;9570;50.854;13.778;2022-08-24T14:27:48;23.50;99.90
18876;DHT22;9570;50.854;13.778;2022-08-24T14:33:08;23.60;99.90
18876;DHT22;9570;50.854;13.778;2022-08-24T14:35:50;23.60;99.90
18876;DHT22;9570;50.854;13.778;2022-08-24T14:38:27;23.60;99.90
18876;DHT22;9570;50.854;13.778;2022-08-24T14:43:52;23.40;99.90
18876;DHT22;9570;50.854;13.778;2022-08-24T14:46:31;23.20;99.90
18876;DHT22;9570;50.854;13.778;2022-08-24T14:49:26;23.20;99.90
18876;DHT22;9570;50.854;13.778;2022-08-24T15:00:17;23.40;99.90
18876;DHT22;9570;50.854;13.778;2022-08-24T15:05:23;23.40;99.90
18876;DHT22;9570;50.854;13.778;2022-08-24T15:08:10;23.50;99.90
18876;DHT22;9570;50.854;13.778;2022-08-24T15:10:49;23.40;99.90
18876;DHT22;9570;50.854;13.778;2022-08-24T15:13:40;23.50;99.90
18876;DHT22;9570;50.854;13.778;2022-08-24T15:16:11;23.50;99.90
18876;DHT22;9570;50.854;13.778;2022-08-24T15:19:03;23.50;99.90
18876;DHT22;9570;50.854;13.778;2022-08-24T15:21:55;23.50;99.90
18876;DHT22;9570;50.854;13.778;2022-08-24T15:29:31;23.50;99.90
18876;DHT22;9570;50.854;13.778;2022-08-24T15:32:10;23.50;99.90
18876;DHT22;9570;50.854;13.778;2022-08-24T15:37:12;23.50;99.90
18876;DHT22;9570;50.854;13.778;2022-08-24T15:39:38;23.50;99.90
18876;DHT22;9570;50.854;13.778;2022-08-24T15:42:09;23.60;99.90
18876;DHT22;9570;50.854;13.778;2022-08-24T15:44:36;23.50;99.90
18876;DHT22;9570;50.854;13.778;2022-08-24T15:47:11;23.50;99.90
18876;DHT22;9570;50.854;13.778;2022-08-24T15:49:51;23.50;99.90
18876;DHT22;9570;50.854;13.778;2022-08-24T15:52:35;23.50;99.90
18876;DHT22;9570;50.854;13.778;2022-08-24T15:55:03;23.40;99.90
18876;DHT22;9570;50.854;13.778;2022-08-24T15:57:34;23.40;99.90
18876;DHT22;9570;50.854;13.778;2022-08-24T16:00:34;23.30;99.90
18876;DHT22;9570;50.854;13.778;2022-08-24T16:11:43;23.10;99.90
18876;DHT22;9570;50.854;13.778;2022-08-24T16:14:23;22.90;99.90
18876;DHT22;9570;50.854;13.778;2022-08-24T16:16:51;22.90;99.90
18876;DHT22;9570;50.854;13.778;2022-08-24T16:19:26;22.90;99.90
18876;DHT22;9570;50.854;13.778;2022-08-24T16:21:56;22.90;99.90
18876;DHT22;9570;50.854;13.778;2022-08-24T16:24:34;22.90;99.90
18876;DHT22;9570;50.854;13.778;2022-08-24T16:27:05;22.90;99.90
18876;DHT22;9570;50.854;13.778;2022-08-24T16:34:38;22.80;99.90
18876;DHT22;9570;50.854;13.778;2022-08-24T16:37:04;22.90;99.90
18876;DHT22;9570;50.854;13.778;2022-08-24T16:39:30;22.90;99.90
18876;DHT22;9570;50.854;13.778;2022-08-24T16:41:58;22.70;99.90
18876;DHT22;9570;50.854;13.778;2022-08-24T16:44:27;22.60;99.90
18876;DHT22;9570;50.854;13.778;2022-08-24T16:46:53;22.70;99.90
18876;DHT22;9570;50.854;13.778;2022-08-24T16:49:19;22.70;99.90
18876;DHT22;9570;50.854;13.778;2022-08-24T16:51:44;22.70;99.90
18876;DHT22;9570;50.854;13.778;2022-08-24T16:54:10;22.70;99.90
18876;DHT22;9570;50.854;13.778;2022-08-24T16:56:35;22.70;99.90
18876;DHT22;9570;50.854;13.778;2022-08-24T16:59:01;22.70;99.90
18876;DHT22;9570;50.854;13.778;2022-08-24T17:01:27;22.60;99.90
18876;DHT22;9570;50.854;13.778;2022-08-24T17:03:52;22.60;99.90
18876;DHT22;9570;50.854;13.778;2022-08-24T17:06:18;22.50;99.90
18876;DHT22;9570;50.854;13.778;2022-08-24T17:08:44;22.40;99.90
18876;DHT22;9570;50.854;13.778;2022-08-24T17:11:12;22.40;99.90
18876;DHT22;9570;50.854;13.778;2022-08-24T17:13:37;22.30;99.90
18876;DHT22;9570;50.854;13.778;2022-08-24T17:16:03;22.30;99.90
18876;DHT22;9570;50.854;13.778;2022-08-24T17:18:28;22.30;99.90
18876;DHT22;9570;50.854;13.778;2022-08-24T17:20:54;22.20;99.90
18876;DHT22;9570;50.854;13.778;2022-08-24T17:23:20;22.20;99.90
18876;DHT22;9570;50.854;13.778;2022-08-24T17:25:45;22.20;99.90
18876;DHT22;9570;50.854;13.778;2022-08-24T17:28:16;22.20;99.90
18876;DHT22;9570;50.854;13.778;2022-08-24T17:30:42;22.10;99.90
18876;DHT22;9570;50.854;13.778;2022-08-24T17:33:07;22.10;99.90
18876;DHT22;9570;50.854;13.778;2022-08-24T17:35:33;22.10;99.90
18876;DHT22;9570;50.854;13.778;2022-08-24T17:37:58;22.00;99.90
18876;DHT22;9570;50.854;13.778;2022-08-24T17:40:25;22.00;99.90
18876;DHT22;9570;50.854;13.778;2022-08-24T17:42:51;21.90;99.90
18876;DHT22;9570;50.854;13.778;2022-08-24T17:45:17;21.80;99.90
18876;DHT22;9570;50.854;13.778;2022-08-24T17:47:43;21.70;99.90
18876;DHT22;9570;50.854;13.778;2022-08-24T17:50:11;21.70;99.90
18876;DHT22;9570;50.854;13.778;2022-08-24T17:52:37;21.70;99.90
18876;DHT22;9570;50.854;13.778;2022-08-24T17:55:05;21.70;99.90
18876;DHT22;9570;50.854;13.778;2022-08-24T17:57:32;21.60;99.90
18876;DHT22;9570;50.854;13.778;2022-08-24T17:59:57;21.60;99.90
18876;DHT22;9570;50.854;13.778;2022-08-24T18:02:23;21.50;99.90
18876;DHT22;9570;50.854;13.778;2022-08-24T18:04:48;21.50;99.90
18876;DHT22;9570;50.854;13.778;2022-08-24T18:07:16;21.40;99.90
18876;DHT22;9570;50.854;13.778;2022-08-24T18:09:49;21.30;99.90
18876;DHT22;9570;50.854;13.778;2022-08-24T18:12:17;21.30;99.90
18876;DHT22;9570;50.854;13.778;2022-08-24T18:14:43;21.20;99.90
18876;DHT22;9570;50.854;13.778;2022-08-24T18:17:12;21.10;99.90
18876;DHT22;9570;50.854;13.778;2022-08-24T18:19:40;21.10;99.90
18876;DHT22;9570;50.854;13.778;2022-08-24T18:22:06;21.00;99.90
18876;DHT22;9570;50.854;13.778;2022-08-24T18:24:32;21.00;99.90
18876;DHT22;9570;50.854;13.778;2022-08-24T18:27:20;20.80;99.90
18876;DHT22;9570;50.854;13.778;2022-08-24T18:29:48;20.80;99.90
18876;DHT22;9570;50.854;13.778;2022-08-24T18:32:15;20.80;99.90
18876;DHT22;9570;50.854;13.778;2022-08-24T18:34:41;20.70;99.90
18876;DHT22;9570;50.854;13.778;2022-08-24T18:37:07;20.70;99.90
18876;DHT22;9570;50.854;13.778;2022-08-24T18:39:32;20.70;99.90
18876;DHT22;9570;50.854;13.778;2022-08-24T18:41:59;20.70;99.90
18876;DHT22;9570;50.854;13.778;2022-08-24T18:44:27;20.60;99.90